createdAt,value
2019-03-23T00:01:15.977Z,14.47
2019-03-23T00:03:52.612Z,16.63
2019-03-23T00:06:30.844Z,16.33
2019-03-23T00:08:58.570Z,13.60
2019-03-23T00:11:29.821Z,21.00
2019-03-23T00:14:01.172Z,18.07
2019-03-23T00:16:33.347Z,16.73
2019-03-23T00:19:05.129Z,18.03
2019-03-23T00:21:44.847Z,15.27
2019-03-23T00:24:19.821Z,17.23
2019-03-23T00:26:52.326Z,15.83
2019-03-23T00:29:24.782Z,18.77
2019-03-23T00:32:05.157Z,17.37
2019-03-23T00:34:36.806Z,18.47
2019-03-23T00:37:09.013Z,19.97
2019-03-23T00:39:44.396Z,19.97
2019-03-23T00:42:23.526Z,21.57
2019-03-23T00:45:24.525Z,27.17
2019-03-23T00:47:55.767Z,23.70
2019-03-23T00:50:27.090Z,62.53
2019-03-23T00:53:03.800Z,64.77
2019-03-23T00:55:35.112Z,73.23
2019-03-23T00:58:10.979Z,78.83
2019-03-23T01:00:42.395Z,79.87
2019-03-23T01:03:13.575Z,98.27
2019-03-23T01:05:44.960Z,104.40
2019-03-23T01:08:16.451Z,96.97
2019-03-23T01:10:47.722Z,98.47
2019-03-23T01:13:22.328Z,107.33
2019-03-23T01:16:03.705Z,102.77
2019-03-23T01:18:34.954Z,106.77
2019-03-23T01:21:07.338Z,103.70
2019-03-23T01:23:38.702Z,104.17
2019-03-23T01:26:10.113Z,97.20
2019-03-23T01:28:41.497Z,108.20
2019-03-23T01:31:12.771Z,104.67
2019-03-23T01:33:44.182Z,104.87
2019-03-23T01:36:15.929Z,104.40
2019-03-23T01:38:47.212Z,106.23
2019-03-23T01:41:18.524Z,105.47
2019-03-23T01:43:49.783Z,103.10
2019-03-23T01:46:21.286Z,104.70
2019-03-23T01:48:52.681Z,104.47
2019-03-23T01:51:30.783Z,108.23
2019-03-23T01:54:03.163Z,111.63
2019-03-23T01:56:36.386Z,123.70
2019-03-23T01:59:07.854Z,150.93
2019-03-23T02:01:51.637Z,142.33
2019-03-23T02:04:24.070Z,164.47
2019-03-23T02:07:01.337Z,170.90
2019-03-23T02:09:39.828Z,179.63
2019-03-23T02:12:12.346Z,170.27
2019-03-23T02:14:49.571Z,181.30
2019-03-23T02:17:27.129Z,181.20
2019-03-23T02:19:58.496Z,183.93
2019-03-23T02:22:31.388Z,175.87
2019-03-23T02:25:09.093Z,173.13
2019-03-23T02:27:55.861Z,167.97
2019-03-23T02:30:27.184Z,161.47
2019-03-23T02:32:58.445Z,166.07
2019-03-23T02:35:36.110Z,173.80
2019-03-23T02:38:18.497Z,170.83
2019-03-23T02:40:53.244Z,176.73
2019-03-23T02:43:36.683Z,188.87
2019-03-23T02:46:08.152Z,182.00
2019-03-23T02:48:39.478Z,190.53
2019-03-23T02:51:16.975Z,185.47
2019-03-23T02:53:48.527Z,187.47
2019-03-23T02:56:24.241Z,182.50
2019-03-23T02:58:59.772Z,177.03
2019-03-23T03:01:32.116Z,189.80
2019-03-23T03:04:05.610Z,181.23
2019-03-23T03:06:40.504Z,169.80
2019-03-23T03:09:11.887Z,170.33
2019-03-23T03:11:44.306Z,164.03
2019-03-23T03:14:15.637Z,178.77
2019-03-23T03:16:47.004Z,175.63
2019-03-23T03:19:18.211Z,173.70
2019-03-23T03:21:53.449Z,181.77
2019-03-23T03:24:24.940Z,171.77
2019-03-23T03:26:56.346Z,183.10
2019-03-23T03:29:27.611Z,181.63
2019-03-23T03:32:03.033Z,177.57
2019-03-23T03:34:34.316Z,167.70
2019-03-23T03:37:05.913Z,173.57
2019-03-23T03:39:37.068Z,170.73
2019-03-23T03:42:08.487Z,164.67
2019-03-23T03:44:39.565Z,164.43
2019-03-23T03:47:11.141Z,157.40
2019-03-23T03:49:44.452Z,163.33
2019-03-23T03:52:23.254Z,158.97
2019-03-23T03:55:10.780Z,155.87
2019-03-23T03:57:42.296Z,164.03
2019-03-23T04:00:18.914Z,149.30
2019-03-23T04:02:55.689Z,154.23
2019-03-23T04:05:33.948Z,157.33
2019-03-23T04:08:11.559Z,149.23
2019-03-23T04:10:41.385Z,149.70
2019-03-23T04:13:12.730Z,150.37
2019-03-23T04:15:43.945Z,142.73
2019-03-23T04:18:26.486Z,152.77
2019-03-23T04:20:57.837Z,146.50
2019-03-23T04:23:29.092Z,154.00
2019-03-23T04:26:00.474Z,147.20
2019-03-23T04:28:31.781Z,146.60
2019-03-23T04:31:06.316Z,149.27
2019-03-23T04:33:50.878Z,143.07
2019-03-23T04:36:22.421Z,148.50
2019-03-23T04:38:54.057Z,142.73
2019-03-23T04:41:25.491Z,138.70
2019-03-23T04:43:57.858Z,137.10
2019-03-23T04:46:29.118Z,142.77
2019-03-23T04:49:00.463Z,133.07
2019-03-23T04:51:32.060Z,133.70
2019-03-23T04:54:03.410Z,134.20
2019-03-23T04:56:36.725Z,139.13
2019-03-23T04:59:10.143Z,148.43
2019-03-23T05:01:41.428Z,137.30
2019-03-23T05:04:17.148Z,135.97
2019-03-23T05:06:48.360Z,139.00
2019-03-23T05:09:41.982Z,141.87
2019-03-23T05:12:13.407Z,129.07
2019-03-23T05:14:44.697Z,137.10
2019-03-23T05:17:16.041Z,121.93
2019-03-23T05:19:48.753Z,141.17
2019-03-23T05:22:20.176Z,133.77
2019-03-23T05:24:51.451Z,135.33
2019-03-23T05:27:22.810Z,129.30
2019-03-23T05:30:01.251Z,121.33
2019-03-23T05:32:42.411Z,118.37
2019-03-23T05:35:13.947Z,121.67
2019-03-23T05:37:49.410Z,121.73
2019-03-23T05:40:24.173Z,120.67
2019-03-23T05:42:59.502Z,116.03
2019-03-23T05:45:33.984Z,113.70
2019-03-23T05:48:05.289Z,119.17
2019-03-23T05:50:43.852Z,118.20
2019-03-23T05:53:15.230Z,131.70
2019-03-23T05:55:46.598Z,122.63
2019-03-23T05:58:29.125Z,123.50
2019-03-23T06:01:00.260Z,123.67
2019-03-23T06:03:40.054Z,116.80
2019-03-23T06:06:11.421Z,123.43
2019-03-23T06:08:54.603Z,121.43
2019-03-23T06:11:23.947Z,133.97
2019-03-23T06:13:56.350Z,137.93
2019-03-23T06:16:29.914Z,132.70
2019-03-23T06:19:01.284Z,133.67
2019-03-23T06:21:36.947Z,158.17
2019-03-23T06:24:09.568Z,147.93
2019-03-23T06:26:40.789Z,146.60
2019-03-23T06:29:17.816Z,150.00
2019-03-23T06:31:51.253Z,139.83
2019-03-23T06:34:24.699Z,150.20
2019-03-23T06:36:56.229Z,142.53
2019-03-23T06:39:38.041Z,144.83
2019-03-23T06:42:10.456Z,139.30
2019-03-23T06:44:47.329Z,139.97
2019-03-23T06:47:22.013Z,145.60
2019-03-23T06:49:53.649Z,133.90
2019-03-23T06:52:25.057Z,139.33
2019-03-23T06:54:57.651Z,130.93
2019-03-23T06:57:29.005Z,126.43
2019-03-23T07:00:10.365Z,136.03
2019-03-23T07:02:42.054Z,137.13
2019-03-23T07:05:16.965Z,130.27
2019-03-23T07:07:48.364Z,131.97
2019-03-23T07:10:32.331Z,128.97
2019-03-23T07:13:09.626Z,123.77
2019-03-23T07:15:40.917Z,125.40
2019-03-23T07:18:12.705Z,135.73
2019-03-23T07:20:47.984Z,130.13
2019-03-23T07:23:19.359Z,125.50
2019-03-23T07:25:51.807Z,134.20
2019-03-23T07:28:23.276Z,128.70
2019-03-23T07:30:56.157Z,124.53
2019-03-23T07:33:32.282Z,119.20
2019-03-23T07:36:03.753Z,134.83
2019-03-23T07:38:35.810Z,127.87
2019-03-23T07:41:07.229Z,136.30
2019-03-23T07:43:44.234Z,130.73
2019-03-23T07:46:24.538Z,143.70
2019-03-23T07:48:55.967Z,133.47
2019-03-23T07:51:27.160Z,134.40
2019-03-23T07:53:58.787Z,140.40
2019-03-23T07:56:30.516Z,129.83
2019-03-23T07:59:13.374Z,122.83
2019-03-23T08:01:50.034Z,126.10
2019-03-23T08:04:21.535Z,123.20
2019-03-23T08:06:54.971Z,110.87
2019-03-23T08:09:37.700Z,111.90
2019-03-23T08:12:07.373Z,117.10
2019-03-23T08:14:45.545Z,118.20
2019-03-23T08:17:25.917Z,121.43
2019-03-23T08:20:04.092Z,111.37
2019-03-23T08:22:37.894Z,113.90
2019-03-23T08:25:09.222Z,110.17
2019-03-23T08:27:41.754Z,115.57
2019-03-23T08:30:13.156Z,117.57
2019-03-23T08:32:56.629Z,117.10
2019-03-23T08:35:28.357Z,114.80
2019-03-23T08:38:08.151Z,117.27
2019-03-23T08:40:51.737Z,111.50
2019-03-23T08:43:28.325Z,113.23
2019-03-23T08:45:59.701Z,106.30
2019-03-23T08:48:38.198Z,111.67
2019-03-23T08:51:11.545Z,112.83
2019-03-23T08:53:43.161Z,107.10
2019-03-23T08:56:19.482Z,113.57
2019-03-23T08:59:06.289Z,111.30
2019-03-23T09:01:38.145Z,107.37
2019-03-23T09:04:09.976Z,104.43
2019-03-23T09:06:47.476Z,114.87
2019-03-23T09:09:18.975Z,111.23
2019-03-23T09:11:50.791Z,114.07
2019-03-23T09:14:23.558Z,109.67
2019-03-23T09:16:56.223Z,115.40
2019-03-23T09:19:33.430Z,106.70
2019-03-23T09:22:05.793Z,106.47
2019-03-23T09:24:50.436Z,107.37
2019-03-23T09:27:32.359Z,108.57
2019-03-23T09:30:04.656Z,102.10
2019-03-23T09:32:36.125Z,109.10
2019-03-23T09:35:09.497Z,119.00
2019-03-23T09:37:41.832Z,107.50
2019-03-23T09:40:13.652Z,113.17
2019-03-23T09:42:51.579Z,111.13
2019-03-23T09:45:25.188Z,107.33
2019-03-23T09:48:08.400Z,102.07
2019-03-23T09:50:46.822Z,104.97
2019-03-23T09:53:39.100Z,120.50
2019-03-23T09:56:10.432Z,101.10
2019-03-23T09:58:52.368Z,102.97
2019-03-23T10:01:23.610Z,98.43
2019-03-23T10:03:54.908Z,97.10
2019-03-23T10:06:26.403Z,100.97
2019-03-23T10:08:58.377Z,104.37
2019-03-23T10:11:31.890Z,89.77
2019-03-23T10:14:03.331Z,88.53
2019-03-23T10:16:34.608Z,92.13
2019-03-23T10:19:06.069Z,87.83
2019-03-23T10:21:38.641Z,91.40
2019-03-23T10:24:10.539Z,89.97
2019-03-23T10:26:41.826Z,88.33
2019-03-23T10:29:13.538Z,91.57
2019-03-23T10:31:44.897Z,88.23
2019-03-23T10:34:16.141Z,83.67
2019-03-23T10:36:47.451Z,89.83
2019-03-23T10:39:21.920Z,82.20
2019-03-23T10:41:53.438Z,86.40
2019-03-23T10:44:24.843Z,86.67
2019-03-23T10:46:56.238Z,85.77
2019-03-23T10:49:27.788Z,85.33
2019-03-23T10:52:00.850Z,88.70
2019-03-23T10:54:32.419Z,82.43
2019-03-23T10:57:10.681Z,86.90
2019-03-23T10:59:42.124Z,82.50
2019-03-23T11:02:13.385Z,79.87
2019-03-23T11:04:44.817Z,92.20
2019-03-23T11:07:25.032Z,81.40
2019-03-23T11:09:56.320Z,83.30
2019-03-23T11:12:27.623Z,83.80
2019-03-23T11:15:16.794Z,81.50
2019-03-23T11:17:53.317Z,85.07
2019-03-23T11:20:24.599Z,83.20
2019-03-23T11:23:12.617Z,84.63
2019-03-23T11:25:43.934Z,79.97
2019-03-23T11:28:15.174Z,85.43
2019-03-23T11:30:49.023Z,83.90
2019-03-23T11:33:22.653Z,79.70
2019-03-23T11:35:58.056Z,83.73
2019-03-23T11:38:30.937Z,82.97
2019-03-23T11:41:03.591Z,81.17
2019-03-23T11:43:55.705Z,80.50
2019-03-23T11:46:27.258Z,86.30
2019-03-23T11:49:06.376Z,85.17
2019-03-23T11:51:40.023Z,84.23
2019-03-23T11:54:11.512Z,81.20
2019-03-23T11:56:43.852Z,77.60
2019-03-23T11:59:15.055Z,79.57
2019-03-23T12:01:51.671Z,80.97
2019-03-23T12:04:26.044Z,81.93
2019-03-23T12:06:58.561Z,80.43
2019-03-23T12:09:43.074Z,77.87
2019-03-23T12:12:14.482Z,76.73
2019-03-23T12:14:45.776Z,73.20
2019-03-23T12:17:18.912Z,78.87
2019-03-23T12:19:50.210Z,87.17
2019-03-23T12:22:23.016Z,77.23
2019-03-23T12:25:02.698Z,77.00
2019-03-23T12:27:39.210Z,81.50
2019-03-23T12:30:12.278Z,77.97
2019-03-23T12:32:43.595Z,78.77
2019-03-23T12:35:15.920Z,84.50
2019-03-23T12:38:16.246Z,83.00
2019-03-23T12:40:58.969Z,81.93
2019-03-23T12:43:30.407Z,78.00
2019-03-23T12:46:08.127Z,79.27
2019-03-23T12:48:39.956Z,82.27
2019-03-23T12:51:17.125Z,79.13
2019-03-23T12:53:55.208Z,87.10
2019-03-23T12:56:27.325Z,88.90
2019-03-23T12:59:09.287Z,86.77
2019-03-23T13:01:41.850Z,82.13
2019-03-23T13:04:13.691Z,76.57
2019-03-23T13:06:45.130Z,80.37
2019-03-23T13:09:18.991Z,81.37
2019-03-23T13:11:52.625Z,87.13
2019-03-23T13:14:26.640Z,85.90
2019-03-23T13:16:59.068Z,78.53
2019-03-23T13:19:32.654Z,80.00
2019-03-23T13:22:31.652Z,80.77
2019-03-23T13:25:03.257Z,86.13
2019-03-23T13:27:43.660Z,79.70
2019-03-23T13:30:15.356Z,79.70
2019-03-23T13:32:51.648Z,77.90
2019-03-23T13:35:25.022Z,80.53
2019-03-23T13:38:01.860Z,81.47
2019-03-23T13:40:36.283Z,86.40
2019-03-23T13:43:10.210Z,76.90
2019-03-23T13:45:47.625Z,77.27
2019-03-23T13:48:24.537Z,74.37
2019-03-23T13:51:04.126Z,75.03
2019-03-23T13:53:37.632Z,81.20
2019-03-23T13:56:08.479Z,76.60
2019-03-23T13:58:41.245Z,79.73
2019-03-23T14:01:21.450Z,80.80
2019-03-23T14:03:53.422Z,79.67
2019-03-23T14:06:30.156Z,78.63
2019-03-23T14:09:02.168Z,76.03
2019-03-23T14:11:38.403Z,77.27
2019-03-23T14:14:11.477Z,79.57
2019-03-23T14:16:44.249Z,78.07
2019-03-23T14:19:27.070Z,79.67
2019-03-23T14:22:00.499Z,81.27
2019-03-23T14:24:48.891Z,76.63
2019-03-23T14:27:20.167Z,74.57
2019-03-23T14:29:53.483Z,71.23
2019-03-23T14:32:26.011Z,75.50
2019-03-23T14:35:03.841Z,73.17
2019-03-23T14:37:40.378Z,72.63
2019-03-23T14:40:28.562Z,73.63
2019-03-23T14:43:05.081Z,74.33
2019-03-23T14:45:48.612Z,75.97
2019-03-23T14:48:20.981Z,79.40
2019-03-23T14:50:54.929Z,87.60
2019-03-23T14:53:30.757Z,87.20
2019-03-23T14:56:03.150Z,82.07
2019-03-23T14:58:34.661Z,81.70
2019-03-23T15:01:09.453Z,75.87
2019-03-23T15:03:52.906Z,76.80
2019-03-23T15:06:24.237Z,81.73
2019-03-23T15:09:06.742Z,80.97
2019-03-23T15:11:38.230Z,79.10
2019-03-23T15:14:09.674Z,78.93
2019-03-23T15:16:44.915Z,77.20
2019-03-23T15:19:17.068Z,79.10
2019-03-23T15:21:50.562Z,76.13
2019-03-23T15:24:23.209Z,79.30
2019-03-23T15:26:55.960Z,82.77
2019-03-23T15:29:27.350Z,73.67
2019-03-23T15:31:59.163Z,70.53
2019-03-23T15:34:30.600Z,80.03
2019-03-23T15:37:02.013Z,70.57
2019-03-23T15:39:40.511Z,79.77
2019-03-23T15:42:11.791Z,74.30
2019-03-23T15:44:45.823Z,70.33
2019-03-23T15:47:20.465Z,86.37
2019-03-23T15:49:51.895Z,79.53
2019-03-23T15:52:25.623Z,75.97
2019-03-23T15:54:57.875Z,77.20
2019-03-23T15:57:31.332Z,74.60
2019-03-23T16:00:05.343Z,76.27
2019-03-23T16:02:36.717Z,79.83
2019-03-23T16:05:09.477Z,76.60
2019-03-23T16:07:42.236Z,76.10
2019-03-23T16:10:41.390Z,79.40
2019-03-23T16:13:12.647Z,78.90
2019-03-23T16:15:44.073Z,81.87
2019-03-23T16:18:15.774Z,81.07
2019-03-23T16:20:47.070Z,75.47
2019-03-23T16:23:22.268Z,71.63
2019-03-23T16:25:56.087Z,68.17
2019-03-23T16:28:47.786Z,71.33
2019-03-23T16:31:19.097Z,73.80
2019-03-23T16:33:50.518Z,66.53
2019-03-23T16:36:22.358Z,71.00
2019-03-23T16:38:55.578Z,72.63
2019-03-23T16:41:27.816Z,68.37
2019-03-23T16:44:02.167Z,70.80
2019-03-23T16:46:35.674Z,76.77
2019-03-23T16:49:18.772Z,75.23
2019-03-23T16:51:51.140Z,75.70
2019-03-23T16:54:22.371Z,73.17
2019-03-23T16:56:53.714Z,77.43
2019-03-23T16:59:25.079Z,74.90
2019-03-23T17:01:57.907Z,75.20
2019-03-23T17:04:30.159Z,69.77
2019-03-23T17:07:01.434Z,76.40
2019-03-23T17:09:33.298Z,74.70
2019-03-23T17:12:12.144Z,72.67
2019-03-23T17:14:43.388Z,73.17
2019-03-23T17:17:18.801Z,70.80
2019-03-23T17:20:03.447Z,72.60
2019-03-23T17:22:40.288Z,70.80
2019-03-23T17:25:11.517Z,72.07
2019-03-23T17:27:45.091Z,67.47
2019-03-23T17:30:19.569Z,70.50
2019-03-23T17:32:50.587Z,74.30
2019-03-23T17:35:24.163Z,75.90
2019-03-23T17:37:55.605Z,76.17
2019-03-23T17:40:32.771Z,76.73
2019-03-23T17:43:06.203Z,78.90
2019-03-23T17:45:38.081Z,81.43
2019-03-23T17:48:09.583Z,81.93
2019-03-23T17:50:41.812Z,79.50
2019-03-23T17:53:13.237Z,83.20
2019-03-23T17:55:46.005Z,80.87
2019-03-23T17:58:24.622Z,84.23
2019-03-23T18:01:19.335Z,90.40
2019-03-23T18:03:52.603Z,92.80
2019-03-23T18:06:23.913Z,88.00
2019-03-23T18:08:56.310Z,85.30
2019-03-23T18:11:33.294Z,90.60
2019-03-23T18:14:04.734Z,98.00
2019-03-23T18:16:36.201Z,94.13
2019-03-23T18:19:20.598Z,81.57
2019-03-23T18:22:03.151Z,82.27
2019-03-23T18:24:38.116Z,71.37
2019-03-23T18:27:09.740Z,60.53
2019-03-23T18:29:43.026Z,56.07
2019-03-23T18:32:15.408Z,48.53
2019-03-23T18:34:47.088Z,44.53
2019-03-23T18:37:20.908Z,40.47
2019-03-23T18:40:01.325Z,35.53
2019-03-23T18:42:34.980Z,37.23
2019-03-23T18:45:07.436Z,29.40
2019-03-23T18:47:38.769Z,32.63
2019-03-23T18:50:17.134Z,31.50
2019-03-23T18:52:50.383Z,28.63
2019-03-23T18:55:24.933Z,30.37
2019-03-23T18:57:57.950Z,29.57
2019-03-23T19:00:43.292Z,30.47
2019-03-23T19:03:14.497Z,29.30
2019-03-23T19:05:50.361Z,29.97
2019-03-23T19:08:24.948Z,30.47
2019-03-23T19:10:56.190Z,28.07
2019-03-23T19:13:37.583Z,32.53
2019-03-23T19:16:01.073Z,29.17
2019-03-23T19:18:34.599Z,31.83
2019-03-23T19:21:11.080Z,29.33
2019-03-23T19:23:48.580Z,30.90
2019-03-23T19:26:20.004Z,32.60
2019-03-23T19:28:53.009Z,32.97
2019-03-23T19:31:26.393Z,30.63
2019-03-23T19:34:02.878Z,34.07
2019-03-23T19:36:34.106Z,33.10
2019-03-23T19:39:08.820Z,34.97
2019-03-23T19:41:41.191Z,39.67
2019-03-23T19:44:15.719Z,34.63
2019-03-23T19:46:47.304Z,36.93
2019-03-23T19:49:20.145Z,40.13
2019-03-23T19:51:51.581Z,34.73
2019-03-23T19:54:23.858Z,37.13
2019-03-23T19:57:00.692Z,43.43
2019-03-23T19:59:39.378Z,38.83
2019-03-23T20:02:11.190Z,38.47
2019-03-23T20:04:42.562Z,36.53
2019-03-23T20:07:14.757Z,43.57
2019-03-23T20:09:46.028Z,36.20
2019-03-23T20:12:20.874Z,40.40
2019-03-23T20:14:52.674Z,38.13
2019-03-23T20:17:28.072Z,37.87
2019-03-23T20:20:00.721Z,36.50
2019-03-23T20:22:34.621Z,36.27
2019-03-23T20:25:06.875Z,37.57
2019-03-23T20:27:45.345Z,32.73
2019-03-23T20:30:22.794Z,31.90
2019-03-23T20:33:06.050Z,31.17
2019-03-23T20:35:37.925Z,29.80
2019-03-23T20:38:09.495Z,30.70
2019-03-23T20:40:44.007Z,25.80
2019-03-23T20:43:16.478Z,26.80
2019-03-23T20:45:48.569Z,26.93
2019-03-23T20:48:23.645Z,29.27
2019-03-23T20:50:56.039Z,26.30
2019-03-23T20:53:38.137Z,25.57
2019-03-23T20:56:10.758Z,25.23
2019-03-23T20:58:43.477Z,24.23
2019-03-23T21:01:14.798Z,25.30
2019-03-23T21:03:48.254Z,27.43
2019-03-23T21:06:20.749Z,21.37
2019-03-23T21:09:08.419Z,22.53
2019-03-23T21:11:40.302Z,25.33
2019-03-23T21:14:20.657Z,20.90
2019-03-23T21:16:56.156Z,20.40
2019-03-23T21:19:34.991Z,24.27
2019-03-23T21:22:06.693Z,20.37
2019-03-23T21:24:38.360Z,19.00
2019-03-23T21:27:11.889Z,18.80
2019-03-23T21:29:44.557Z,17.00
2019-03-23T21:32:35.319Z,20.27
2019-03-23T21:35:07.687Z,14.47
2019-03-23T21:37:40.629Z,17.83
2019-03-23T21:40:17.418Z,13.77
2019-03-23T21:42:49.809Z,17.20
2019-03-23T21:45:22.182Z,14.67
2019-03-23T21:47:55.602Z,13.90
2019-03-23T21:50:28.764Z,11.73
2019-03-23T21:53:02.131Z,14.03
2019-03-23T21:55:36.314Z,16.40
2019-03-23T21:58:08.563Z,14.10
2019-03-23T22:00:42.414Z,12.87
2019-03-23T22:03:16.175Z,15.67
2019-03-23T22:05:50.373Z,13.07
2019-03-23T22:08:28.392Z,14.97
2019-03-23T22:11:01.210Z,14.03
2019-03-23T22:13:34.216Z,14.40
2019-03-23T22:16:06.954Z,16.63
2019-03-23T22:18:39.605Z,16.67
2019-03-23T22:21:11.381Z,9.57
2019-03-23T22:23:50.829Z,10.67
2019-03-23T22:26:34.349Z,17.77
2019-03-23T22:29:10.509Z,16.30
2019-03-23T22:31:52.643Z,15.80
2019-03-23T22:34:27.899Z,14.63
2019-03-23T22:36:59.156Z,12.87
2019-03-23T22:39:30.411Z,18.97
2019-03-23T22:42:01.775Z,14.83
2019-03-23T22:44:40.259Z,11.40
2019-03-23T22:47:11.489Z,13.57
2019-03-23T22:49:48.412Z,14.40
2019-03-23T22:52:20.013Z,15.07
2019-03-23T22:54:51.836Z,12.80
2019-03-23T22:57:23.035Z,15.27
2019-03-23T22:59:54.739Z,14.67
2019-03-23T23:02:27.133Z,13.97
2019-03-23T23:04:59.289Z,13.73
2019-03-23T23:07:30.695Z,14.97
2019-03-23T23:10:02.004Z,14.43
2019-03-23T23:12:33.271Z,15.70
2019-03-23T23:15:05.881Z,16.77
2019-03-23T23:17:39.200Z,15.77
2019-03-23T23:20:12.447Z,16.63
2019-03-23T23:22:49.975Z,15.67
2019-03-23T23:25:22.390Z,16.87
2019-03-23T23:28:03.521Z,12.17
2019-03-23T23:30:34.758Z,14.93
2019-03-23T23:33:13.314Z,17.47
2019-03-23T23:35:45.894Z,12.97
2019-03-23T23:38:21.195Z,15.20
2019-03-23T23:40:52.672Z,17.30
2019-03-23T23:43:47.192Z,21.87
2019-03-23T23:46:18.728Z,21.47
2019-03-23T23:49:13.765Z,15.37
2019-03-23T23:51:50.061Z,15.23
2019-03-23T23:54:31.824Z,14.83
2019-03-23T23:57:03.162Z,14.27
2019-03-23T23:59:34.335Z,12.97
